Time;durP1;ratioP1;P1;durP2;ratioP2;P2;SDS_P1;SDS_P2;PMS_P1;PMS_P2;Temp;Humidity;BMP_temperature;BMP_pressure;BME280_temperature;BME280_humidity;BME280_pressure;Samples;Min_cycle;Max_cycle;Signal;HPM_P1;HPM_P2
2022/04/13 00:01:20;;;;;;;62.00;6.07;;;;;;;;;;5091837;28;20456;-73
2022/04/13 00:03:48;;;;;;;62.10;6.80;;;;;;;;;;5091691;28;20446;-72
2022/04/13 00:06:15;;;;;;;65.50;7.90;;;;;;;;;;5091624;28;21015;-73
2022/04/13 00:08:44;;;;;;;64.27;6.90;;;;;;;;;;5090794;28;20473;-72
2022/04/13 00:11:11;;;;;;;61.97;6.60;;;;;;;;;;5091576;28;20939;-73
2022/04/13 00:13:38;;;;;;;65.77;6.43;;;;;;;;;;5091428;28;20814;-73
2022/04/13 00:16:05;;;;;;;62.50;7.40;;;;;;;;;;5091841;28;20482;-74
2022/04/13 00:18:34;;;;;;;62.70;7.40;;;;;;;;;;5091305;28;20466;-73
2022/04/13 00:21:01;;;;;;;64.97;7.53;;;;;;;;;;5091396;28;20458;-74
2022/04/13 00:23:28;;;;;;;63.10;6.73;;;;;;;;;;5091780;28;20457;-72
2022/04/13 00:25:55;;;;;;;64.00;7.13;;;;;;;;;;5091614;28;20531;-73
2022/04/13 00:28:23;;;;;;;67.37;7.60;;;;;;;;;;5090932;28;20478;-73
2022/04/13 00:30:50;;;;;;;67.10;8.27;;;;;;;;;;5091671;28;20542;-73
2022/04/13 00:33:17;;;;;;;61.63;5.97;;;;;;;;;;5091694;28;20464;-73
2022/04/13 00:35:46;;;;;;;61.57;6.10;;;;;;;;;;5091544;28;20481;-72
2022/04/13 00:38:14;;;;;;;63.37;6.60;;;;;;;;;;5090796;28;20550;-73
2022/04/13 00:40:41;;;;;;;63.50;6.00;;;;;;;;;;5091676;28;20827;-74
2022/04/13 00:43:08;;;;;;;63.20;6.27;;;;;;;;;;5091390;28;20450;-74
2022/04/13 00:45:35;;;;;;;61.40;6.70;;;;;;;;;;5091266;28;21029;-73
2022/04/13 00:48:03;;;;;;;65.90;6.97;;;;;;;;;;5093652;28;20469;-74
2022/04/13 00:50:30;;;;;;;61.53;5.87;;;;;;;;;;5095264;28;20454;-73
2022/04/13 00:53:00;;;;;;;64.20;6.60;;;;;;;;;;5095180;28;20438;-73
2022/04/13 00:55:28;;;;;;;62.47;6.60;;;;;;;;;;5095040;28;20446;-73
2022/04/13 00:57:55;;;;;;;63.47;7.13;;;;;;;;;;5094027;28;20959;-74
2022/04/13 01:00:23;;;;;;;63.17;6.53;;;;;;;;;;5094837;28;20454;-74
2022/04/13 01:02:50;;;;;;;62.77;7.13;;;;;;;;;;5094505;28;20875;-74
2022/04/13 01:05:17;;;;;;;64.37;6.70;;;;;;;;;;5094907;28;20454;-73
2022/04/13 01:07:45;;;;;;;63.70;6.90;;;;;;;;;;5093887;28;21005;-74
2022/04/13 01:10:13;;;;;;;64.43;7.20;;;;;;;;;;5094246;28;20453;-74
2022/04/13 01:12:40;;;;;;;62.07;7.00;;;;;;;;;;5095210;28;20533;-73
2022/04/13 01:15:08;;;;;;;63.77;6.43;;;;;;;;;;5094425;28;20458;-73
2022/04/13 01:17:38;;;;;;;62.70;7.03;;;;;;;;;;5093800;28;20517;-74
2022/04/13 01:20:05;;;;;;;63.40;6.77;;;;;;;;;;5094415;28;21043;-73
2022/04/13 01:22:34;;;;;;;67.83;7.07;;;;;;;;;;5094384;28;20533;-73
2022/04/13 01:25:01;;;;;;;62.70;6.57;;;;;;;;;;5094384;28;20540;-73
2022/04/13 01:27:28;;;;;;;62.77;6.20;;;;;;;;;;5093411;28;20831;-73
2022/04/13 01:29:55;;;;;;;61.60;6.10;;;;;;;;;;5094020;28;20463;-73
2022/04/13 01:32:22;;;;;;;67.47;5.83;;;;;;;;;;5094215;28;20457;-72
2022/04/13 01:34:50;;;;;;;60.90;5.33;;;;;;;;;;5094496;28;20452;-73
2022/04/13 01:37:17;;;;;;;60.60;5.93;;;;;;;;;;5093131;28;20486;-73
2022/04/13 01:39:46;;;;;;;61.57;5.90;;;;;;;;;;5093926;28;20495;-73
2022/04/13 01:42:13;;;;;;;66.17;6.23;;;;;;;;;;5093770;28;20538;-73
2022/04/13 01:44:41;;;;;;;63.90;6.30;;;;;;;;;;5093897;28;20935;-73
2022/04/13 01:47:09;;;;;;;63.60;5.93;;;;;;;;;;5093577;28;20453;-73
2022/04/13 01:49:36;;;;;;;63.37;5.80;;;;;;;;;;5090348;28;20486;-74
2022/04/13 01:52:04;;;;;;;62.80;5.80;;;;;;;;;;5093744;28;20446;-73
2022/04/13 01:54:31;;;;;;;61.73;5.63;;;;;;;;;;5093607;28;20485;-72
2022/04/13 01:56:59;;;;;;;61.50;5.83;;;;;;;;;;5093593;28;20565;-73
2022/04/13 01:59:27;;;;;;;63.37;5.80;;;;;;;;;;5091997;28;20564;-72
2022/04/13 02:01:54;;;;;;;62.67;5.70;;;;;;;;;;5093722;28;20485;-73
2022/04/13 02:04:22;;;;;;;60.77;5.30;;;;;;;;;;5093336;28;20455;-73
2022/04/13 02:06:50;;;;;;;63.30;5.57;;;;;;;;;;5093654;28;20451;-72
2022/04/13 02:09:17;;;;;;;60.37;5.00;;;;;;;;;;5092724;28;20529;-72
2022/04/13 02:11:45;;;;;;;64.30;5.73;;;;;;;;;;5093454;28;20480;-73
2022/04/13 02:14:13;;;;;;;66.10;6.57;;;;;;;;;;5093361;28;20445;-73
2022/04/13 02:16:40;;;;;;;62.83;5.90;;;;;;;;;;5093249;28;20567;-73
2022/04/13 02:19:08;;;;;;;61.97;6.10;;;;;;;;;;5092757;28;20563;-73
2022/04/13 02:21:35;;;;;;;63.67;6.57;;;;;;;;;;5093532;28;20533;-73
2022/04/13 02:24:02;;;;;;;62.63;6.33;;;;;;;;;;5093375;28;20539;-73
2022/04/13 02:26:29;;;;;;;60.97;5.50;;;;;;;;;;5093325;28;20446;-74
2022/04/13 02:28:56;;;;;;;60.17;5.10;;;;;;;;;;5092356;28;20992;-73
2022/04/13 02:31:25;;;;;;;62.57;6.30;;;;;;;;;;5092899;28;21028;-73
2022/04/13 02:33:53;;;;;;;62.20;5.87;;;;;;;;;;5093095;28;20476;-73
2022/04/13 02:36:21;;;;;;;61.60;5.47;;;;;;;;;;5093041;28;20446;-74
2022/04/13 02:38:48;;;;;;;63.70;5.83;;;;;;;;;;5092689;28;20556;-73
2022/04/13 02:41:15;;;;;;;61.70;6.10;;;;;;;;;;5092907;28;20451;-74
2022/04/13 02:43:43;;;;;;;62.40;6.10;;;;;;;;;;5093217;28;20543;-73
2022/04/13 02:46:10;;;;;;;61.80;6.20;;;;;;;;;;5093036;28;20475;-72
2022/04/13 02:48:38;;;;;;;60.20;5.30;;;;;;;;;;5091834;28;20495;-73
2022/04/13 02:51:06;;;;;;;62.83;6.30;;;;;;;;;;5092728;28;20539;-73
2022/04/13 02:53:33;;;;;;;61.20;5.93;;;;;;;;;;5092528;28;20993;-73
2022/04/13 02:56:00;;;;;;;61.40;6.37;;;;;;;;;;5092596;28;20857;-73
2022/04/13 02:58:27;;;;;;;68.53;6.30;;;;;;;;;;5091593;28;20488;-73
2022/04/13 03:00:55;;;;;;;63.77;6.20;;;;;;;;;;5092447;28;20539;-73
2022/04/13 03:03:22;;;;;;;62.80;6.80;;;;;;;;;;5092887;28;20454;-73
2022/04/13 03:05:51;;;;;;;63.80;6.57;;;;;;;;;;5092354;28;20443;-73
2022/04/13 03:08:18;;;;;;;62.77;5.90;;;;;;;;;;5091629;28;20551;-74
2022/04/13 03:10:45;;;;;;;62.43;6.20;;;;;;;;;;5092172;28;20442;-73
2022/04/13 03:13:12;;;;;;;61.33;5.83;;;;;;;;;;5092142;28;20459;-73
2022/04/13 03:15:40;;;;;;;65.07;6.80;;;;;;;;;;5092398;28;20549;-73
2022/04/13 03:18:07;;;;;;;61.40;5.90;;;;;;;;;;5091385;28;20579;-72
2022/04/13 03:20:34;;;;;;;62.13;6.23;;;;;;;;;;5092096;28;20449;-73
2022/04/13 03:23:03;;;;;;;62.90;6.47;;;;;;;;;;5092047;28;20538;-73
2022/04/13 03:25:30;;;;;;;61.77;6.10;;;;;;;;;;5091952;28;20559;-74
2022/04/13 03:27:57;;;;;;;61.23;5.50;;;;;;;;;;5091516;28;21014;-73
2022/04/13 03:30:24;;;;;;;62.10;5.70;;;;;;;;;;5092170;28;20854;-73
2022/04/13 03:32:52;;;;;;;61.37;5.90;;;;;;;;;;5092022;28;20446;-73
2022/04/13 03:35:19;;;;;;;62.90;6.47;;;;;;;;;;5091945;28;20940;-73
2022/04/13 03:37:46;;;;;;;62.37;5.57;;;;;;;;;;5091067;28;21004;-73
2022/04/13 03:40:15;;;;;;;60.97;5.80;;;;;;;;;;5091918;28;21327;-73
2022/04/13 03:42:44;;;;;;;66.30;6.80;;;;;;;;;;5091996;28;20490;-73
2022/04/13 03:45:12;;;;;;;69.20;6.63;;;;;;;;;;5092055;28;20546;-74
2022/04/13 03:47:39;;;;;;;63.40;6.20;;;;;;;;;;5092843;28;20538;-74
2022/04/13 03:50:06;;;;;;;62.40;6.27;;;;;;;;;;5092968;28;20555;-74
2022/04/13 03:52:34;;;;;;;63.70;6.93;;;;;;;;;;5093018;28;20612;-74
2022/04/13 03:55:01;;;;;;;63.25;7.20;;;;;;;;;;5091954;28;20529;-73
2022/04/13 03:57:30;;;;;;;67.00;6.60;;;;;;;;;;5091238;28;20253;-73
2022/04/13 03:59:57;;;;;;;63.57;6.50;;;;;;;;;;5091809;28;20539;-73
2022/04/13 04:02:24;;;;;;;65.60;6.30;;;;;;;;;;5091968;28;20443;-73
2022/04/13 04:04:51;;;;;;;63.00;6.63;;;;;;;;;;5092041;28;20448;-73
2022/04/13 04:07:19;;;;;;;63.07;6.90;;;;;;;;;;5090963;28;20940;-73
2022/04/13 04:09:46;;;;;;;62.85;6.50;;;;;;;;;;5092141;28;20448;-73
2022/04/13 04:12:13;;;;;;;63.70;7.13;;;;;;;;;;5091788;28;20205;-73
2022/04/13 04:14:41;;;;;;;63.70;7.13;;;;;;;;;;5092102;28;20460;-73
2022/04/13 04:17:09;;;;;;;64.17;7.33;;;;;;;;;;5091315;28;20523;-73
2022/04/13 04:19:36;;;;;;;62.10;6.60;;;;;;;;;;5091780;28;20548;-74
2022/04/13 04:22:03;;;;;;;64.00;6.97;;;;;;;;;;5093942;28;20526;-73
2022/04/13 04:24:30;;;;;;;65.27;6.87;;;;;;;;;;5095486;28;21040;-73
2022/04/13 04:26:57;;;;;;;61.70;6.37;;;;;;;;;;5095582;28;20459;-73
2022/04/13 04:29:24;;;;;;;64.97;5.70;;;;;;;;;;5094644;28;20472;-73
2022/04/13 04:31:54;;;;;;;61.83;6.07;;;;;;;;;;5095504;28;20534;-73
2022/04/13 04:34:22;;;;;;;63.47;6.60;;;;;;;;;;5095207;28;20444;-72
2022/04/13 04:36:49;;;;;;;62.97;6.23;;;;;;;;;;5095335;28;20440;-72
2022/04/13 04:39:16;;;;;;;61.58;6.13;;;;;;;;;;5094724;28;20476;-74
2022/04/13 04:41:44;;;;;;;62.73;6.10;;;;;;;;;;5095350;28;20641;-73
2022/04/13 04:44:11;;;;;;;62.33;6.10;;;;;;;;;;5095086;28;20892;-74
2022/04/13 04:46:38;;;;;;;63.17;6.18;;;;;;;;;;5094986;28;20454;-73
2022/04/13 04:49:07;;;;;;;63.03;5.80;;;;;;;;;;5094353;28;20319;-73
2022/04/13 04:51:34;;;;;;;61.20;6.20;;;;;;;;;;5095359;28;20447;-73
2022/04/13 04:54:02;;;;;;;66.33;6.40;;;;;;;;;;5094873;28;20454;-73
2022/04/13 04:56:29;;;;;;;61.80;5.50;;;;;;;;;;5094988;28;21015;-74
2022/04/13 04:58:56;;;;;;;62.67;6.20;;;;;;;;;;5094573;28;20857;-73
2022/04/13 05:01:24;;;;;;;66.30;8.23;;;;;;;;;;5094794;28;20481;-73
2022/04/13 05:03:51;;;;;;;63.40;6.00;;;;;;;;;;5094861;28;20687;-74
2022/04/13 05:06:21;;;;;;;61.27;6.20;;;;;;;;;;5095004;28;20309;-73
2022/04/13 05:08:48;;;;;;;62.57;5.93;;;;;;;;;;5094110;28;20462;-74
2022/04/13 05:11:16;;;;;;;63.40;6.87;;;;;;;;;;5094710;28;20453;-73
2022/04/13 05:13:45;;;;;;;63.43;6.50;;;;;;;;;;5094837;28;20889;-74
2022/04/13 05:16:13;;;;;;;62.27;7.03;;;;;;;;;;5094840;28;20556;-73
2022/04/13 05:18:41;;;;;;;63.58;6.93;;;;;;;;;;5093683;28;20495;-74
2022/04/13 05:21:08;;;;;;;62.80;6.10;;;;;;;;;;5094491;28;20690;-74
2022/04/13 05:23:37;;;;;;;62.00;5.83;;;;;;;;;;5094328;28;20526;-74
2022/04/13 05:26:04;;;;;;;63.50;7.33;;;;;;;;;;5095914;28;20443;-73
2022/04/13 05:28:31;;;;;;;63.37;6.97;;;;;;;;;;5093594;28;20477;-74
2022/04/13 05:30:58;;;;;;;62.17;6.30;;;;;;;;;;5094742;28;20486;-72
2022/04/13 05:33:25;;;;;;;63.83;7.33;;;;;;;;;;5094323;28;20451;-73
2022/04/13 05:35:53;;;;;;;65.00;6.30;;;;;;;;;;5094444;28;20483;-73
2022/04/13 05:38:20;;;;;;;63.77;6.27;;;;;;;;;;5093314;28;20496;-74
2022/04/13 05:40:49;;;;;;;64.83;6.97;;;;;;;;;;5094763;28;20486;-74
2022/04/13 05:43:16;;;;;;;62.30;6.83;;;;;;;;;;5094669;28;20445;-73
2022/04/13 05:45:43;;;;;;;63.10;6.60;;;;;;;;;;5094244;28;20536;-73
2022/04/13 05:48:10;;;;;;;63.00;7.03;;;;;;;;;;5094491;28;20556;-73
2022/04/13 05:50:37;;;;;;;63.13;6.80;;;;;;;;;;5095852;28;20460;-73
2022/04/13 05:53:04;;;;;;;66.00;8.20;;;;;;;;;;5094988;28;20839;-74
2022/04/13 05:55:32;;;;;;;64.83;6.90;;;;;;;;;;5094104;28;20452;-73
2022/04/13 05:58:00;;;;;;;64.77;7.70;;;;;;;;;;5094100;28;20583;-73
2022/04/13 06:00:27;;;;;;;63.20;6.80;;;;;;;;;;5094027;28;20453;-73
2022/04/13 06:02:54;;;;;;;66.60;6.70;;;;;;;;;;5093703;28;20545;-74
2022/04/13 06:05:24;;;;;;;64.00;6.87;;;;;;;;;;5093564;28;20475;-73
2022/04/13 06:07:53;;;;;;;64.53;6.77;;;;;;;;;;5092637;28;20471;-74
2022/04/13 06:10:20;;;;;;;61.47;6.17;;;;;;;;;;5093313;28;20449;-73
2022/04/13 06:12:48;;;;;;;64.00;6.40;;;;;;;;;;5093342;28;20448;-72
2022/04/13 06:15:17;;;;;;;64.40;6.43;;;;;;;;;;5093604;28;20829;-73
2022/04/13 06:17:44;;;;;;;61.80;6.10;;;;;;;;;;5092519;28;20484;-73
2022/04/13 06:20:14;;;;;;;61.60;6.03;;;;;;;;;;5093423;28;20450;-74
2022/04/13 06:22:42;;;;;;;61.47;5.80;;;;;;;;;;5093380;28;20536;-74
2022/04/13 06:25:11;;;;;;;61.77;6.40;;;;;;;;;;5093486;28;20446;-73
2022/04/13 06:27:38;;;;;;;61.90;6.57;;;;;;;;;;5101386;28;20560;-73
2022/04/13 06:30:05;;;;;;;61.70;5.90;;;;;;;;;;5100155;28;20521;-73
2022/04/13 06:32:34;;;;;;;63.97;6.20;;;;;;;;;;5099722;28;20522;-73
2022/04/13 06:35:02;;;;;;;62.50;6.00;;;;;;;;;;5100005;28;20890;-73
2022/04/13 06:37:29;;;;;;;62.20;6.10;;;;;;;;;;5097986;28;20475;-73
2022/04/13 06:39:56;;;;;;;62.00;5.77;;;;;;;;;;5097897;28;20966;-73
2022/04/13 06:42:23;;;;;;;62.27;5.90;;;;;;;;;;5097628;28;20529;-74
2022/04/13 06:44:51;;;;;;;62.40;6.30;;;;;;;;;;5097696;28;20478;-73
2022/04/13 06:47:18;;;;;;;61.67;6.13;;;;;;;;;;5098440;28;20485;-73
2022/04/13 06:49:47;;;;;;;62.40;5.93;;;;;;;;;;5098179;28;20454;-73
2022/04/13 06:52:14;;;;;;;62.03;5.13;;;;;;;;;;5098324;28;20446;-71
2022/04/13 06:54:41;;;;;;;62.83;6.10;;;;;;;;;;5098526;28;20446;-74
2022/04/13 06:57:09;;;;;;;62.97;5.97;;;;;;;;;;5097103;28;21001;-73
2022/04/13 06:59:36;;;;;;;62.73;5.87;;;;;;;;;;5097068;28;20535;-74
2022/04/13 07:02:06;;;;;;;62.50;6.20;;;;;;;;;;5097568;28;20446;-74
2022/04/13 07:04:33;;;;;;;63.27;5.30;;;;;;;;;;5096938;28;20450;-73
2022/04/13 07:07:02;;;;;;;62.50;6.33;;;;;;;;;;5097044;28;20444;-74
2022/04/13 07:09:29;;;;;;;64.47;5.20;;;;;;;;;;5097498;28;20494;-73
2022/04/13 07:11:57;;;;;;;69.17;5.90;;;;;;;;;;5097799;28;20904;-73
2022/04/13 07:14:24;;;;;;;64.70;7.37;;;;;;;;;;5097959;28;20958;-73
2022/04/13 07:16:51;;;;;;;64.43;5.30;;;;;;;;;;5097797;28;20442;-73
2022/04/13 07:19:19;;;;;;;61.60;5.70;;;;;;;;;;5098031;28;20486;-74
2022/04/13 07:21:46;;;;;;;62.27;5.77;;;;;;;;;;5099464;28;20478;-74
2022/04/13 07:24:15;;;;;;;60.53;5.47;;;;;;;;;;5098917;28;20530;-73
2022/04/13 07:26:42;;;;;;;64.23;5.30;;;;;;;;;;5099216;28;20542;-73
2022/04/13 07:29:09;;;;;;;63.20;5.57;;;;;;;;;;5098355;28;20489;-74
2022/04/13 07:31:36;;;;;;;63.20;6.17;;;;;;;;;;5098425;28;20873;-73
2022/04/13 07:34:03;;;;;;;60.90;6.40;;;;;;;;;;5098327;28;20875;-73
2022/04/13 07:36:30;;;;;;;60.70;5.43;;;;;;;;;;5097826;28;20470;-73
2022/04/13 07:38:58;;;;;;;62.90;5.87;;;;;;;;;;5097325;28;20486;-74
2022/04/13 07:41:26;;;;;;;63.40;5.40;;;;;;;;;;5095591;28;20451;-71
2022/04/13 07:43:55;;;;;;;61.80;6.00;;;;;;;;;;5106966;28;20468;-74
2022/04/13 07:46:22;;;;;;;62.83;6.00;;;;;;;;;;5108718;28;20447;-70
2022/04/13 07:48:50;;;;;;;61.30;5.23;;;;;;;;;;5106882;28;21011;-73
2022/04/13 07:51:17;;;;;;;61.37;5.00;;;;;;;;;;5097917;28;20449;-71
2022/04/13 07:53:44;;;;;;;64.37;5.40;;;;;;;;;;5089020;28;20535;-74
2022/04/13 07:56:11;;;;;;;61.30;5.30;;;;;;;;;;5097457;28;20444;-74
2022/04/13 07:58:39;;;;;;;63.90;5.40;;;;;;;;;;5101898;28;20552;-74
2022/04/13 08:01:07;;;;;;;62.47;5.63;;;;;;;;;;5104808;28;20511;-73
2022/04/13 08:03:34;;;;;;;60.77;5.20;;;;;;;;;;5103197;28;21000;-74
2022/04/13 08:06:02;;;;;;;61.50;5.40;;;;;;;;;;5103914;28;20501;-73
2022/04/13 08:08:30;;;;;;;61.47;5.90;;;;;;;;;;5102983;28;20532;-73
2022/04/13 08:10:57;;;;;;;61.97;5.50;;;;;;;;;;5104575;28;20479;-72
2022/04/13 08:13:24;;;;;;;63.37;4.77;;;;;;;;;;5105172;28;20457;-73
2022/04/13 08:15:52;;;;;;;59.87;5.20;;;;;;;;;;5105088;28;20532;-73
2022/04/13 08:18:19;;;;;;;61.60;5.00;;;;;;;;;;5103578;28;20504;-73
2022/04/13 08:20:47;;;;;;;62.40;5.03;;;;;;;;;;5104701;28;20590;-74
2022/04/13 08:23:14;;;;;;;60.57;5.20;;;;;;;;;;5104904;28;20508;-73
2022/04/13 08:25:41;;;;;;;61.97;5.57;;;;;;;;;;5089085;28;20454;-73
2022/04/13 08:28:08;;;;;;;68.63;6.20;;;;;;;;;;5084456;28;20498;-74
2022/04/13 08:30:35;;;;;;;63.57;5.10;;;;;;;;;;5085091;28;20446;-72
2022/04/13 08:33:04;;;;;;;61.77;5.00;;;;;;;;;;5082941;28;21025;-75
2022/04/13 08:35:31;;;;;;;62.00;5.13;;;;;;;;;;5082330;28;20541;-74
2022/04/13 08:37:58;;;;;;;61.77;5.03;;;;;;;;;;5074098;28;20474;-74
2022/04/13 08:40:25;;;;;;;62.47;4.90;;;;;;;;;;5074828;28;20455;-74
2022/04/13 08:42:56;;;;;;;59.70;4.70;;;;;;;;;;5075422;28;20453;-74
2022/04/13 08:45:24;;;;;;;60.10;4.90;;;;;;;;;;5075170;28;20529;-74
2022/04/13 08:47:56;;;;;;;61.83;4.83;;;;;;;;;;5074412;28;20475;-74
2022/04/13 08:50:25;;;;;;;60.37;4.43;;;;;;;;;;5073863;28;20435;-74
2022/04/13 08:52:55;;;;;;;64.13;5.70;;;;;;;;;;5074264;28;20465;-74
2022/04/13 08:55:24;;;;;;;64.70;4.30;;;;;;;;;;5072944;28;20450;-74
2022/04/13 08:58:07;;;;;;;62.70;4.40;;;;;;;;;;5079595;28;20490;-74
2022/04/13 09:00:36;;;;;;;61.40;4.67;;;;;;;;;;5094343;28;20474;-73
2022/04/13 09:03:17;;;;;;;61.10;4.63;;;;;;;;;;5094373;28;20446;-74
2022/04/13 09:05:48;;;;;;;64.67;4.33;;;;;;;;;;5093901;28;20541;-74
2022/04/13 09:08:18;;;;;;;66.00;5.17;;;;;;;;;;5092540;28;20518;-74
2022/04/13 09:10:45;;;;;;;60.90;4.60;;;;;;;;;;5093946;28;20455;-74
2022/04/13 09:13:12;;;;;;;60.47;5.00;;;;;;;;;;5093286;28;20479;-72
2022/04/13 09:15:40;;;;;;;61.43;4.33;;;;;;;;;;5093875;28;20453;-74
2022/04/13 09:18:08;;;;;;;60.20;4.50;;;;;;;;;;5098714;28;20501;-75
2022/04/13 09:20:35;;;;;;;64.67;5.00;;;;;;;;;;5097608;28;20912;-75
2022/04/13 09:23:04;;;;;;;62.27;4.23;;;;;;;;;;5097632;28;20865;-75
2022/04/13 09:25:31;;;;;;;59.30;3.97;;;;;;;;;;5097825;28;20825;-75
2022/04/13 09:27:59;;;;;;;59.97;4.37;;;;;;;;;;5097344;28;20505;-75
2022/04/13 09:30:26;;;;;;;62.43;5.17;;;;;;;;;;5094515;28;20453;-75
2022/04/13 09:32:53;;;;;;;61.10;5.00;;;;;;;;;;5097126;28;20473;-75
2022/04/13 09:35:21;;;;;;;60.07;4.53;;;;;;;;;;5095558;28;20474;-75
2022/04/13 09:37:49;;;;;;;60.17;4.60;;;;;;;;;;5093426;28;20501;-75
2022/04/13 09:40:29;;;;;;;62.47;4.60;;;;;;;;;;5094743;28;20577;-75
2022/04/13 09:43:04;;;;;;;62.87;4.10;;;;;;;;;;5095473;28;20454;-75
2022/04/13 09:45:34;;;;;;;63.30;3.93;;;;;;;;;;5096501;28;20452;-73
2022/04/13 09:48:01;;;;;;;61.73;3.90;;;;;;;;;;5055683;28;1138329;-75
2022/04/13 09:50:28;;;;;;;60.77;3.90;;;;;;;;;;5095814;28;21047;-75
2022/04/13 09:52:57;;;;;;;60.33;4.27;;;;;;;;;;5095077;28;20442;-75
2022/04/13 09:55:26;;;;;;;63.00;4.63;;;;;;;;;;5094517;28;20951;-76
2022/04/13 09:58:04;;;;;;;62.50;3.50;;;;;;;;;;5093222;28;20909;-75
2022/04/13 10:00:31;;;;;;;63.50;4.77;;;;;;;;;;5093350;28;20575;-75
2022/04/13 10:03:07;;;;;;;66.57;4.10;;;;;;;;;;5093150;28;20451;-74
2022/04/13 10:05:34;;;;;;;59.47;3.20;;;;;;;;;;5093814;28;20446;-75
2022/04/13 10:08:05;;;;;;;59.67;3.53;;;;;;;;;;5093158;28;20550;-75
2022/04/13 10:10:32;;;;;;;63.07;3.50;;;;;;;;;;5094415;28;20819;-75
2022/04/13 10:13:01;;;;;;;62.67;3.80;;;;;;;;;;5094446;28;20833;-75
2022/04/13 10:15:28;;;;;;;64.20;3.30;;;;;;;;;;5094444;28;20454;-74
2022/04/13 10:17:59;;;;;;;59.30;3.50;;;;;;;;;;5093623;28;20470;-76
2022/04/13 10:20:29;;;;;;;59.10;3.70;;;;;;;;;;5093251;28;20486;-76
2022/04/13 10:22:58;;;;;;;61.80;3.90;;;;;;;;;;5093932;28;20503;-75
2022/04/13 10:25:26;;;;;;;62.10;3.83;;;;;;;;;;5093212;28;20499;-76
2022/04/13 10:27:54;;;;;;;58.57;3.53;;;;;;;;;;5093050;28;20844;-76
2022/04/13 10:30:27;;;;;;;66.30;4.60;;;;;;;;;;5094333;28;20542;-76
2022/04/13 10:33:01;;;;;;;60.00;3.83;;;;;;;;;;5094020;28;20446;-76
2022/04/13 10:35:28;;;;;;;60.80;3.50;;;;;;;;;;5093575;28;21038;-76
2022/04/13 10:37:56;;;;;;;64.60;3.70;;;;;;;;;;5093242;28;20660;-75
2022/04/13 10:40:24;;;;;;;61.40;3.40;;;;;;;;;;5093731;28;20489;-75
2022/04/13 10:42:52;;;;;;;60.13;3.53;;;;;;;;;;5093358;28;20489;-75
2022/04/13 10:45:19;;;;;;;59.50;3.40;;;;;;;;;;5093580;28;20528;-73
2022/04/13 10:47:51;;;;;;;61.10;3.83;;;;;;;;;;5093416;28;20494;-73
2022/04/13 10:50:21;;;;;;;59.83;3.13;;;;;;;;;;5093798;28;20541;-73
2022/04/13 10:52:55;;;;;;;63.40;4.07;;;;;;;;;;5093753;28;20454;-73
2022/04/13 10:55:22;;;;;;;61.03;3.80;;;;;;;;;;5093446;28;20864;-73
2022/04/13 10:57:51;;;;;;;65.23;3.80;;;;;;;;;;5092800;28;20550;-72
2022/04/13 11:00:20;;;;;;;63.93;3.53;;;;;;;;;;5093035;28;20540;-74
2022/04/13 11:02:53;;;;;;;60.60;3.53;;;;;;;;;;5092943;28;21005;-73
2022/04/13 11:05:22;;;;;;;57.90;3.40;;;;;;;;;;5093364;28;20537;-73
2022/04/13 11:07:51;;;;;;;58.67;3.40;;;;;;;;;;5092768;28;20466;-74
2022/04/13 11:10:19;;;;;;;59.30;3.30;;;;;;;;;;5093538;28;20874;-73
2022/04/13 11:12:47;;;;;;;61.50;3.63;;;;;;;;;;5093237;28;21048;-73
2022/04/13 11:15:14;;;;;;;59.03;3.30;;;;;;;;;;5093579;28;20461;-72
2022/04/13 11:17:42;;;;;;;59.53;3.67;;;;;;;;;;5092111;28;20807;-74
2022/04/13 11:20:21;;;;;;;64.23;3.90;;;;;;;;;;5092877;28;21042;-74
2022/04/13 11:23:07;;;;;;;59.53;3.27;;;;;;;;;;5092835;28;20500;-72
2022/04/13 11:25:44;;;;;;;59.10;3.73;;;;;;;;;;5093398;28;20447;-74
2022/04/13 11:28:11;;;;;;;60.67;3.90;;;;;;;;;;5091725;28;20462;-74
2022/04/13 11:30:53;;;;;;;57.97;3.27;;;;;;;;;;5092752;28;20474;-74
2022/04/13 11:33:20;;;;;;;63.43;3.47;;;;;;;;;;5093408;28;20881;-73
2022/04/13 11:35:49;;;;;;;62.70;3.40;;;;;;;;;;5092726;28;20855;-73
2022/04/13 11:38:17;;;;;;;63.67;3.40;;;;;;;;;;5092283;28;20549;-72
2022/04/13 11:40:59;;;;;;;57.80;3.03;;;;;;;;;;5092545;28;20538;-73
2022/04/13 11:43:26;;;;;;;61.17;3.53;;;;;;;;;;5092564;28;20508;-74
2022/04/13 11:45:54;;;;;;;57.77;3.13;;;;;;;;;;5092953;28;20530;-73
2022/04/13 11:48:32;;;;;;;59.93;4.00;;;;;;;;;;5091583;28;20482;-73
2022/04/13 11:51:15;;;;;;;58.83;3.50;;;;;;;;;;5092452;28;20489;-74
2022/04/13 11:53:55;;;;;;;57.13;2.97;;;;;;;;;;5092137;28;20446;-73
2022/04/13 11:56:32;;;;;;;59.50;3.30;;;;;;;;;;5092784;28;20793;-74
2022/04/13 11:58:59;;;;;;;62.13;3.50;;;;;;;;;;5092632;28;20462;-74
2022/04/13 12:01:27;;;;;;;60.30;3.10;;;;;;;;;;5092916;28;20871;-74
2022/04/13 12:03:56;;;;;;;58.80;3.47;;;;;;;;;;5093183;28;20472;-73
2022/04/13 12:06:25;;;;;;;58.70;3.20;;;;;;;;;;5092416;28;20529;-72
2022/04/13 12:08:53;;;;;;;59.07;3.60;;;;;;;;;;5092753;28;20557;-73
2022/04/13 12:11:22;;;;;;;61.20;3.43;;;;;;;;;;5093060;28;20483;-73
2022/04/13 12:13:50;;;;;;;59.43;3.60;;;;;;;;;;5092549;28;20966;-73
2022/04/13 12:16:19;;;;;;;59.07;3.30;;;;;;;;;;5092252;28;20994;-73
2022/04/13 12:18:46;;;;;;;59.50;3.37;;;;;;;;;;5091197;28;20473;-73
2022/04/13 12:21:14;;;;;;;59.27;3.40;;;;;;;;;;5092798;28;20466;-72
2022/04/13 12:23:42;;;;;;;58.73;3.60;;;;;;;;;;5092325;28;20523;-74
2022/04/13 12:26:09;;;;;;;64.70;3.60;;;;;;;;;;5092592;28;20450;-73
2022/04/13 12:28:38;;;;;;;58.93;3.20;;;;;;;;;;5088317;28;20569;-72
2022/04/13 12:31:07;;;;;;;57.77;3.30;;;;;;;;;;5083918;28;20577;-75
2022/04/13 12:33:35;;;;;;;58.17;3.57;;;;;;;;;;5093823;28;20450;-73
2022/04/13 12:36:03;;;;;;;58.03;3.47;;;;;;;;;;5074258;28;20995;-73
2022/04/13 12:38:32;;;;;;;59.53;3.63;;;;;;;;;;5075511;28;20530;-73
2022/04/13 12:41:03;;;;;;;58.07;3.40;;;;;;;;;;5075541;28;20471;-73
2022/04/13 12:43:31;;;;;;;60.53;3.60;;;;;;;;;;5077101;28;20534;-73
2022/04/13 12:45:59;;;;;;;58.47;3.07;;;;;;;;;;5079135;28;20422;-72
2022/04/13 12:48:27;;;;;;;59.67;3.30;;;;;;;;;;5078154;28;20511;-74
2022/04/13 12:51:02;;;;;;;63.57;4.20;;;;;;;;;;5079251;28;20570;-72
2022/04/13 12:53:30;;;;;;;57.20;3.03;;;;;;;;;;5077792;28;20550;-74
2022/04/13 12:55:58;;;;;;;60.80;4.30;;;;;;;;;;5079077;28;20471;-71
2022/04/13 12:58:25;;;;;;;60.03;3.80;;;;;;;;;;5077505;28;20507;-73
2022/04/13 13:00:53;;;;;;;58.93;3.43;;;;;;;;;;5078619;28;20531;-72
2022/04/13 13:03:23;;;;;;;61.90;3.87;;;;;;;;;;5078195;28;20705;-74
2022/04/13 13:05:50;;;;;;;59.00;3.80;;;;;;;;;;5076915;28;20475;-73
2022/04/13 13:08:17;;;;;;;59.40;3.43;;;;;;;;;;5088072;28;20564;-73
2022/04/13 13:10:45;;;;;;;66.00;3.73;;;;;;;;;;5097613;28;20482;-73
2022/04/13 13:13:13;;;;;;;58.43;3.87;;;;;;;;;;5097800;28;20489;-74
2022/04/13 13:15:40;;;;;;;62.50;3.90;;;;;;;;;;5097621;28;20533;-73
2022/04/13 13:18:08;;;;;;;62.70;4.13;;;;;;;;;;5096748;28;20549;-73
2022/04/13 13:20:38;;;;;;;59.73;3.07;;;;;;;;;;5096443;28;20470;-73
2022/04/13 13:23:09;;;;;;;58.10;3.40;;;;;;;;;;5097124;28;21021;-73
2022/04/13 13:25:42;;;;;;;62.57;3.40;;;;;;;;;;5094706;28;20447;-75
2022/04/13 13:28:09;;;;;;;59.63;3.23;;;;;;;;;;5095099;28;20573;-74
2022/04/13 13:30:40;;;;;;;62.57;3.50;;;;;;;;;;5094764;28;20497;-76
2022/04/13 13:33:11;;;;;;;57.47;3.20;;;;;;;;;;5094972;28;20533;-74
2022/04/13 13:35:39;;;;;;;61.60;3.50;;;;;;;;;;5095234;28;20443;-77
2022/04/13 13:38:09;;;;;;;61.50;4.07;;;;;;;;;;5095284;28;20565;-77
2022/04/13 13:40:43;;;;;;;58.07;3.00;;;;;;;;;;5095207;28;20438;-77
2022/04/13 13:43:11;;;;;;;59.63;3.57;;;;;;;;;;5094698;28;20461;-73
2022/04/13 13:45:39;;;;;;;58.63;2.90;;;;;;;;;;5097378;28;20474;-75
2022/04/13 13:48:07;;;;;;;62.10;3.50;;;;;;;;;;5092970;28;20546;-76
2022/04/13 13:50:35;;;;;;;61.47;3.13;;;;;;;;;;5094302;28;21060;-75
2022/04/13 13:53:04;;;;;;;58.73;3.40;;;;;;;;;;5095214;28;20871;-75
2022/04/13 13:55:33;;;;;;;61.80;3.50;;;;;;;;;;5094491;28;20532;-72
2022/04/13 13:58:00;;;;;;;63.60;3.57;;;;;;;;;;5095839;28;20470;-75
2022/04/13 14:00:28;;;;;;;60.27;3.40;;;;;;;;;;5093510;28;21002;-72
2022/04/13 14:02:55;;;;;;;62.10;3.23;;;;;;;;;;5093596;28;20886;-75
2022/04/13 14:05:23;;;;;;;58.90;3.20;;;;;;;;;;5094632;28;20482;-75
2022/04/13 14:07:50;;;;;;;59.70;3.03;;;;;;;;;;5092823;28;20474;-75
2022/04/13 14:10:19;;;;;;;60.40;3.30;;;;;;;;;;5093684;28;20514;-75
2022/04/13 14:12:46;;;;;;;58.27;3.23;;;;;;;;;;5095198;28;20895;-74
2022/04/13 14:15:14;;;;;;;71.10;3.77;;;;;;;;;;5094060;28;20489;-75
2022/04/13 14:17:41;;;;;;;59.00;3.30;;;;;;;;;;5093344;28;20471;-75
2022/04/13 14:20:09;;;;;;;61.77;4.47;;;;;;;;;;5094101;28;20447;-72
2022/04/13 14:22:37;;;;;;;61.47;4.77;;;;;;;;;;5092923;28;20529;-74
2022/04/13 14:25:04;;;;;;;59.70;3.20;;;;;;;;;;5093577;28;20526;-72
2022/04/13 14:27:34;;;;;;;61.10;3.87;;;;;;;;;;5093167;28;20521;-74
2022/04/13 14:30:01;;;;;;;61.33;3.43;;;;;;;;;;5092996;28;20507;-69
2022/04/13 14:32:29;;;;;;;61.10;4.10;;;;;;;;;;5093785;28;20489;-72
2022/04/13 14:34:57;;;;;;;59.53;3.60;;;;;;;;;;5093436;28;20474;-74
2022/04/13 14:37:25;;;;;;;63.53;3.53;;;;;;;;;;5096323;28;20488;-74